createdAt,value
2019-03-28T00:00:22.514Z,7.68
2019-03-28T00:01:22.514Z,7.71
2019-03-28T00:02:22.496Z,7.67
2019-03-28T00:03:22.487Z,7.61
2019-03-28T00:04:22.492Z,7.57
2019-03-28T00:05:22.459Z,7.55
2019-03-28T00:06:23.120Z,7.53
2019-03-28T00:07:24.247Z,7.57
2019-03-28T00:08:22.428Z,7.53
2019-03-28T00:09:22.420Z,7.52
2019-03-28T00:10:27.439Z,7.57
2019-03-28T00:11:22.393Z,7.53
2019-03-28T00:12:22.392Z,7.58
2019-03-28T00:13:22.368Z,7.57
2019-03-28T00:14:22.359Z,7.57
2019-03-28T00:15:22.359Z,7.50
2019-03-28T00:16:22.335Z,7.53
2019-03-28T00:17:22.324Z,7.52
2019-03-28T00:18:22.314Z,7.48
2019-03-28T00:19:22.301Z,7.43
2019-03-28T00:20:22.342Z,7.42
2019-03-28T00:21:27.298Z,7.50
2019-03-28T00:22:22.268Z,7.49
2019-03-28T00:23:22.261Z,7.42
2019-03-28T00:24:22.329Z,7.42
2019-03-28T00:25:22.247Z,7.42
2019-03-28T00:26:30.198Z,7.46
2019-03-28T00:27:23.216Z,7.45
2019-03-28T00:28:22.202Z,7.34
2019-03-28T00:29:22.190Z,7.37
2019-03-28T00:30:22.188Z,7.35
2019-03-28T00:31:22.224Z,7.34
2019-03-28T00:32:27.187Z,7.39
2019-03-28T00:33:22.145Z,7.30
2019-03-28T00:34:22.129Z,7.35
2019-03-28T00:35:22.155Z,7.30
2019-03-28T00:36:22.106Z,7.34
2019-03-28T00:37:22.097Z,7.30
2019-03-28T00:38:22.085Z,7.30
2019-03-28T00:39:22.072Z,7.21
2019-03-28T00:40:22.077Z,7.24
2019-03-28T00:41:22.054Z,7.21
2019-03-28T00:42:22.040Z,7.21
2019-03-28T00:43:27.056Z,7.23
2019-03-28T00:44:22.039Z,7.24
2019-03-28T00:45:22.017Z,7.20
2019-03-28T00:46:21.995Z,7.20
2019-03-28T00:47:21.989Z,7.21
2019-03-28T00:48:21.972Z,7.10
2019-03-28T00:49:21.961Z,7.23
2019-03-28T00:50:21.961Z,7.21
2019-03-28T00:51:21.938Z,7.20
2019-03-28T00:52:21.928Z,7.13
2019-03-28T00:53:21.913Z,7.16
2019-03-28T00:54:26.924Z,7.10
2019-03-28T00:55:21.903Z,7.06
2019-03-28T00:56:21.882Z,6.99
2019-03-28T00:57:21.870Z,7.06
2019-03-28T00:58:21.857Z,6.99
2019-03-28T00:59:21.845Z,6.99
2019-03-28T01:00:21.847Z,6.94
2019-03-28T01:01:21.828Z,6.94
2019-03-28T01:02:21.812Z,6.91
2019-03-28T01:03:21.803Z,6.95
2019-03-28T01:04:21.797Z,6.92
2019-03-28T01:05:26.818Z,6.98
2019-03-28T01:06:21.766Z,6.95
2019-03-28T01:07:22.109Z,6.94
2019-03-28T01:08:21.745Z,7.03
2019-03-28T01:09:21.730Z,7.06
2019-03-28T01:10:22.207Z,7.05
2019-03-28T01:11:21.708Z,6.99
2019-03-28T01:12:21.700Z,6.98
2019-03-28T01:13:21.691Z,6.95
2019-03-28T01:14:21.675Z,6.85
2019-03-28T01:15:21.681Z,6.87
2019-03-28T01:16:26.675Z,6.77
2019-03-28T01:17:21.646Z,6.76
2019-03-28T01:18:21.631Z,6.79
2019-03-28T01:19:21.617Z,6.84
2019-03-28T01:20:21.615Z,6.77
2019-03-28T01:21:21.595Z,6.85
2019-03-28T01:22:21.584Z,6.76
2019-03-28T01:23:21.574Z,6.74
2019-03-28T01:24:21.566Z,6.91
2019-03-28T01:25:21.593Z,6.85
2019-03-28T01:26:21.550Z,6.84
2019-03-28T01:27:26.552Z,6.89
2019-03-28T01:28:21.518Z,6.91
2019-03-28T01:29:21.505Z,6.98
2019-03-28T01:30:22.221Z,7.02
2019-03-28T01:31:21.483Z,7.02
2019-03-28T01:32:21.471Z,6.94
2019-03-28T01:33:21.459Z,6.97
2019-03-28T01:34:21.448Z,6.99
2019-03-28T01:35:21.451Z,6.99
2019-03-28T01:36:21.434Z,6.91
2019-03-28T01:37:21.423Z,6.88
2019-03-28T01:38:26.425Z,6.97
2019-03-28T01:39:21.394Z,6.94
2019-03-28T01:40:21.404Z,6.99
2019-03-28T01:41:21.370Z,6.94
2019-03-28T01:42:21.359Z,7.06
2019-03-28T01:43:21.360Z,6.98
2019-03-28T01:44:21.342Z,7.03
2019-03-28T01:45:21.341Z,6.94
2019-03-28T01:46:21.319Z,6.94
2019-03-28T01:47:21.308Z,6.98
2019-03-28T01:48:21.293Z,7.02
2019-03-28T01:49:26.302Z,7.02
2019-03-28T01:50:21.288Z,6.98
2019-03-28T01:51:21.261Z,7.03
2019-03-28T01:52:21.422Z,7.02
2019-03-28T01:53:21.249Z,7.05
2019-03-28T01:54:21.225Z,6.97
2019-03-28T01:55:22.185Z,6.99
2019-03-28T01:56:21.210Z,6.92
2019-03-28T01:57:21.193Z,7.02
2019-03-28T01:58:21.179Z,7.02
2019-03-28T01:59:21.298Z,7.03
2019-03-28T02:00:26.195Z,6.99
2019-03-28T02:01:21.154Z,6.99
2019-03-28T02:02:21.137Z,6.99
2019-03-28T02:03:21.124Z,6.85
2019-03-28T02:04:21.114Z,6.94
2019-03-28T02:05:21.167Z,6.92
2019-03-28T02:06:21.104Z,6.94
2019-03-28T02:07:21.112Z,6.85
2019-03-28T02:08:21.075Z,6.94
2019-03-28T02:09:21.061Z,6.89
2019-03-28T02:10:21.058Z,6.94
2019-03-28T02:11:26.063Z,6.87
2019-03-28T02:12:21.022Z,6.91
2019-03-28T02:13:21.018Z,6.94
2019-03-28T02:14:21.010Z,6.88
2019-03-28T02:15:21.002Z,6.85
2019-03-28T02:16:21.473Z,6.80
2019-03-28T02:17:20.967Z,6.84
2019-03-28T02:18:20.958Z,6.84
2019-03-28T02:19:20.955Z,6.81
2019-03-28T02:20:20.957Z,6.76
2019-03-28T02:21:20.929Z,6.74
2019-03-28T02:22:25.934Z,6.77
2019-03-28T02:23:20.911Z,6.76
2019-03-28T02:24:20.889Z,6.74
2019-03-28T02:25:20.894Z,6.61
2019-03-28T02:26:20.868Z,6.71
2019-03-28T02:27:24.223Z,6.44
2019-03-28T02:28:20.845Z,6.51
2019-03-28T02:29:20.835Z,6.44
2019-03-28T02:30:20.838Z,6.51
2019-03-28T02:31:20.813Z,6.40
2019-03-28T02:32:20.866Z,6.34
2019-03-28T02:33:25.813Z,6.34
2019-03-28T02:34:20.780Z,6.34
2019-03-28T02:35:20.780Z,6.37
2019-03-28T02:36:20.756Z,6.38
2019-03-28T02:37:20.746Z,6.33
2019-03-28T02:38:20.740Z,6.36
2019-03-28T02:39:20.726Z,6.22
2019-03-28T02:40:20.724Z,6.36
2019-03-28T02:41:20.701Z,6.22
2019-03-28T02:42:20.696Z,6.21
2019-03-28T02:43:20.739Z,6.22
2019-03-28T02:44:25.734Z,6.22
2019-03-28T02:45:20.666Z,6.14
2019-03-28T02:46:20.644Z,6.15
2019-03-28T02:47:20.718Z,6.12
2019-03-28T02:48:20.654Z,6.04
2019-03-28T02:49:20.611Z,6.08
2019-03-28T02:50:20.619Z,6.01
2019-03-28T02:51:20.599Z,6.04
2019-03-28T02:52:21.526Z,6.00
2019-03-28T02:53:20.615Z,6.03
2019-03-28T02:54:20.564Z,6.01
2019-03-28T02:55:25.579Z,5.89
2019-03-28T02:56:20.534Z,5.94
2019-03-28T02:57:20.521Z,5.90
2019-03-28T02:58:20.514Z,5.89
2019-03-28T02:59:20.503Z,5.90
2019-03-28T03:00:20.998Z,5.81
2019-03-28T03:01:20.484Z,5.85
2019-03-28T03:02:20.482Z,5.91
2019-03-28T03:03:20.465Z,5.83
2019-03-28T03:04:20.530Z,5.81
2019-03-28T03:05:20.491Z,5.82
2019-03-28T03:06:25.458Z,5.81
2019-03-28T03:07:20.424Z,5.85
2019-03-28T03:08:20.437Z,5.76
2019-03-28T03:09:20.398Z,5.85
2019-03-28T03:10:20.472Z,5.79
2019-03-28T03:11:20.382Z,5.79
2019-03-28T03:12:20.354Z,5.81
2019-03-28T03:13:20.357Z,5.83
2019-03-28T03:14:20.344Z,5.82
2019-03-28T03:15:20.332Z,5.85
2019-03-28T03:16:20.335Z,5.89
2019-03-28T03:17:25.329Z,5.90
2019-03-28T03:18:21.549Z,5.85
2019-03-28T03:19:20.279Z,5.74
2019-03-28T03:20:20.265Z,5.78
2019-03-28T03:21:20.267Z,5.64
2019-03-28T03:22:20.342Z,5.68
2019-03-28T03:23:20.416Z,5.58
2019-03-28T03:24:20.226Z,5.64
2019-03-28T03:25:20.207Z,5.64
2019-03-28T03:26:20.209Z,5.63
2019-03-28T03:27:20.203Z,5.60
2019-03-28T03:28:25.199Z,5.65
2019-03-28T03:29:20.173Z,5.67
2019-03-28T03:30:20.157Z,5.65
2019-03-28T03:31:21.359Z,5.71
2019-03-28T03:32:20.140Z,5.74
2019-03-28T03:33:20.185Z,5.63
2019-03-28T03:34:20.148Z,5.79
2019-03-28T03:35:20.110Z,5.68
2019-03-28T03:36:20.103Z,5.65
2019-03-28T03:37:20.074Z,5.78
2019-03-28T03:38:20.066Z,5.75
2019-03-28T03:39:25.101Z,5.78
2019-03-28T03:40:20.041Z,5.78
2019-03-28T03:41:20.058Z,5.81
2019-03-28T03:42:20.110Z,5.85
2019-03-28T03:43:20.014Z,5.82
2019-03-28T03:44:20.035Z,5.90
2019-03-28T03:45:20.008Z,5.86
2019-03-28T03:46:19.992Z,5.90
2019-03-28T03:47:19.979Z,5.94
2019-03-28T03:48:19.958Z,5.91
2019-03-28T03:49:19.948Z,5.94
2019-03-28T03:50:24.950Z,5.89
2019-03-28T03:51:19.936Z,5.96
2019-03-28T03:52:19.917Z,5.94
2019-03-28T03:53:19.893Z,5.93
2019-03-28T03:54:19.886Z,5.96
2019-03-28T03:55:19.885Z,5.99
2019-03-28T03:56:19.878Z,5.97
2019-03-28T03:57:19.865Z,5.89
2019-03-28T03:58:19.853Z,5.91
2019-03-28T03:59:19.840Z,5.96
2019-03-28T04:00:19.825Z,5.83
2019-03-28T04:01:24.843Z,5.86
2019-03-28T04:02:19.797Z,5.85
2019-03-28T04:03:19.785Z,5.76
2019-03-28T04:04:19.782Z,5.81
2019-03-28T04:05:19.767Z,5.75
2019-03-28T04:06:19.769Z,5.71
2019-03-28T04:07:19.737Z,5.71
2019-03-28T04:08:19.748Z,5.63
2019-03-28T04:09:19.731Z,5.64
2019-03-28T04:10:19.742Z,5.65
2019-03-28T04:11:19.710Z,5.60
2019-03-28T04:12:24.704Z,5.58
2019-03-28T04:13:19.674Z,5.57
2019-03-28T04:14:19.672Z,5.61
2019-03-28T04:15:19.650Z,5.58
2019-03-28T04:16:19.654Z,5.51
2019-03-28T04:17:19.626Z,5.58
2019-03-28T04:18:22.071Z,5.53
2019-03-28T04:19:19.609Z,5.58
2019-03-28T04:20:19.596Z,5.49
2019-03-28T04:21:19.593Z,5.54
2019-03-28T04:22:19.575Z,5.60
2019-03-28T04:23:24.607Z,5.49
2019-03-28T04:24:19.808Z,5.51
2019-03-28T04:25:19.548Z,5.48
2019-03-28T04:26:19.554Z,5.45
2019-03-28T04:27:19.521Z,5.46
2019-03-28T04:28:31.503Z,5.33
2019-03-28T04:29:20.492Z,5.40
2019-03-28T04:30:19.513Z,5.36
2019-03-28T04:31:19.488Z,5.31
2019-03-28T04:32:20.574Z,5.24
2019-03-28T04:33:19.444Z,5.18
2019-03-28T04:34:24.455Z,5.22
2019-03-28T04:35:19.429Z,5.20
2019-03-28T04:36:19.429Z,5.17
2019-03-28T04:37:19.401Z,5.07
2019-03-28T04:38:19.403Z,5.13
2019-03-28T04:39:19.376Z,5.15
2019-03-28T04:40:19.367Z,5.09
2019-03-28T04:41:19.364Z,5.03
2019-03-28T04:42:19.475Z,5.12
2019-03-28T04:43:19.335Z,5.03
2019-03-28T04:44:19.367Z,4.99
2019-03-28T04:45:24.333Z,5.00
2019-03-28T04:46:19.706Z,4.96
2019-03-28T04:47:19.286Z,4.96
2019-03-28T04:48:19.280Z,4.84
2019-03-28T04:49:19.265Z,4.85
2019-03-28T04:50:19.251Z,4.77
2019-03-28T04:51:19.255Z,4.82
2019-03-28T04:52:19.434Z,4.80
2019-03-28T04:53:19.225Z,4.78
2019-03-28T04:54:19.214Z,4.82
2019-03-28T04:55:19.200Z,4.75
2019-03-28T04:56:24.223Z,4.67
2019-03-28T04:57:19.236Z,4.70
2019-03-28T04:58:21.788Z,4.69
2019-03-28T04:59:19.160Z,4.73
2019-03-28T05:00:19.141Z,4.66
2019-03-28T05:01:19.146Z,4.69
2019-03-28T05:02:19.117Z,4.67
2019-03-28T05:03:19.142Z,4.69
2019-03-28T05:04:21.129Z,4.65
2019-03-28T05:05:19.082Z,4.63
2019-03-28T05:06:19.091Z,4.70
2019-03-28T05:07:24.152Z,4.69
2019-03-28T05:08:19.049Z,4.65
2019-03-28T05:09:19.041Z,4.63
2019-03-28T05:10:19.028Z,4.54
2019-03-28T05:11:19.032Z,4.59
2019-03-28T05:12:19.101Z,4.55
2019-03-28T05:13:19.096Z,4.59
2019-03-28T05:14:18.984Z,4.65
2019-03-28T05:15:20.346Z,4.54
2019-03-28T05:16:18.986Z,4.54
2019-03-28T05:17:19.011Z,4.59
2019-03-28T05:18:23.958Z,4.63
2019-03-28T05:19:18.927Z,4.55
2019-03-28T05:20:18.915Z,4.52
2019-03-28T05:21:18.916Z,4.59
2019-03-28T05:22:18.895Z,4.54
2019-03-28T05:23:18.936Z,4.55
2019-03-28T05:24:18.877Z,4.66
2019-03-28T05:25:18.862Z,4.63
2019-03-28T05:26:18.863Z,4.73
2019-03-28T05:27:18.840Z,4.70
2019-03-28T05:28:18.830Z,4.67
2019-03-28T05:29:23.844Z,4.67
2019-03-28T05:30:18.802Z,4.67
2019-03-28T05:31:18.803Z,4.69
2019-03-28T05:32:18.788Z,4.69
2019-03-28T05:33:18.772Z,4.63
2019-03-28T05:34:18.809Z,4.69
2019-03-28T05:35:18.751Z,4.69
2019-03-28T05:36:18.769Z,4.66
2019-03-28T05:37:18.725Z,4.58
2019-03-28T05:38:18.728Z,4.75
2019-03-28T05:39:19.561Z,4.66
2019-03-28T05:40:23.718Z,4.70
2019-03-28T05:41:18.709Z,4.75
2019-03-28T05:42:18.668Z,4.75
2019-03-28T05:43:18.658Z,4.77
2019-03-28T05:44:18.645Z,4.75
2019-03-28T05:45:18.651Z,4.75
2019-03-28T05:46:18.658Z,4.75
2019-03-28T05:47:18.620Z,4.73
2019-03-28T05:48:18.604Z,4.84
2019-03-28T05:49:18.590Z,4.84
2019-03-28T05:50:18.577Z,4.75
2019-03-28T05:51:23.633Z,4.78
2019-03-28T05:52:18.561Z,4.89
2019-03-28T05:53:18.547Z,4.92
2019-03-28T05:54:18.534Z,4.89
2019-03-28T05:55:18.521Z,4.91
2019-03-28T05:56:18.543Z,4.99
2019-03-28T05:57:18.498Z,4.96
2019-03-28T05:58:18.546Z,4.97
2019-03-28T05:59:19.429Z,4.92
2019-03-28T06:00:18.467Z,4.88
2019-03-28T06:01:18.470Z,4.92
2019-03-28T06:02:24.327Z,4.96
2019-03-28T06:03:18.432Z,4.86
2019-03-28T06:04:18.421Z,4.86
2019-03-28T06:05:18.410Z,4.92
2019-03-28T06:06:18.498Z,5.02
2019-03-28T06:07:18.389Z,4.99
2019-03-28T06:08:18.379Z,4.94
2019-03-28T06:09:19.283Z,5.02
2019-03-28T06:10:18.352Z,5.03
2019-03-28T06:11:18.354Z,5.07
2019-03-28T06:12:19.214Z,5.09
2019-03-28T06:13:23.341Z,5.10
2019-03-28T06:14:18.307Z,5.15
2019-03-28T06:15:18.297Z,5.06
2019-03-28T06:16:18.311Z,5.10
2019-03-28T06:17:18.276Z,5.00
2019-03-28T06:18:18.264Z,4.99
2019-03-28T06:19:18.251Z,4.96
2019-03-28T06:20:18.243Z,5.10
2019-03-28T06:21:18.231Z,5.02
2019-03-28T06:22:18.229Z,5.09
2019-03-28T06:23:18.206Z,5.13
2019-03-28T06:24:23.218Z,5.22
2019-03-28T06:25:18.183Z,5.25
2019-03-28T06:26:18.177Z,5.28
2019-03-28T06:27:18.187Z,5.33
2019-03-28T06:28:18.152Z,5.35
2019-03-28T06:29:23.599Z,5.46
2019-03-28T06:30:19.133Z,5.48
2019-03-28T06:31:18.117Z,5.39
2019-03-28T06:32:18.117Z,5.49
2019-03-28T06:33:18.113Z,5.51
2019-03-28T06:34:18.086Z,5.56
2019-03-28T06:35:23.155Z,5.56
2019-03-28T06:36:18.091Z,5.63
2019-03-28T06:37:18.060Z,5.57
2019-03-28T06:38:18.048Z,5.65
2019-03-28T06:39:18.030Z,5.58
2019-03-28T06:40:18.017Z,5.74
2019-03-28T06:41:18.006Z,5.65
2019-03-28T06:42:18.004Z,5.67
2019-03-28T06:43:17.982Z,5.71
2019-03-28T06:44:17.987Z,5.67
2019-03-28T06:45:17.962Z,5.82
2019-03-28T06:46:22.974Z,5.85
2019-03-28T06:47:20.922Z,5.85
2019-03-28T06:48:17.926Z,5.86
2019-03-28T06:49:17.915Z,5.89
2019-03-28T06:50:17.903Z,5.96
2019-03-28T06:51:17.891Z,5.90
2019-03-28T06:52:17.893Z,6.03
2019-03-28T06:53:17.869Z,6.01
2019-03-28T06:54:17.860Z,6.03
2019-03-28T06:55:17.851Z,6.06
2019-03-28T06:56:17.859Z,6.00
2019-03-28T06:57:22.874Z,6.11
2019-03-28T06:58:17.812Z,6.17
2019-03-28T06:59:17.804Z,6.22
2019-03-28T07:00:17.808Z,6.27
2019-03-28T07:01:17.784Z,6.25
2019-03-28T07:02:17.783Z,6.30
2019-03-28T07:03:17.755Z,6.34
2019-03-28T07:04:17.746Z,6.41
2019-03-28T07:05:17.736Z,6.49
2019-03-28T07:06:17.723Z,6.58
2019-03-28T07:07:18.570Z,6.66
2019-03-28T07:08:22.723Z,6.67
2019-03-28T07:09:18.292Z,6.77
2019-03-28T07:10:17.684Z,6.80
2019-03-28T07:11:17.669Z,6.85
2019-03-28T07:12:18.404Z,6.91
2019-03-28T07:13:17.649Z,7.13
2019-03-28T07:14:17.635Z,7.13
2019-03-28T07:15:17.624Z,7.25
2019-03-28T07:16:17.612Z,7.35
2019-03-28T07:17:17.614Z,7.45
2019-03-28T07:18:17.593Z,7.42
2019-03-28T07:19:22.614Z,7.63
2019-03-28T07:20:17.569Z,7.72
2019-03-28T07:21:18.267Z,7.77
2019-03-28T07:22:17.555Z,7.93
2019-03-28T07:23:17.537Z,8.11
2019-03-28T07:24:17.533Z,8.28
2019-03-28T07:25:17.513Z,8.33
2019-03-28T07:26:17.507Z,8.20
2019-03-28T07:27:17.576Z,8.36
2019-03-28T07:28:17.511Z,8.37
2019-03-28T07:29:17.463Z,8.34
2019-03-28T07:30:22.486Z,8.25
2019-03-28T07:31:17.442Z,8.38
2019-03-28T07:32:17.443Z,8.45
2019-03-28T07:33:17.421Z,8.47
2019-03-28T07:34:17.415Z,8.59
2019-03-28T07:35:17.407Z,8.65
2019-03-28T07:36:17.470Z,8.74
2019-03-28T07:37:17.392Z,8.81
2019-03-28T07:38:17.368Z,8.98
2019-03-28T07:39:19.094Z,8.94
2019-03-28T07:40:17.343Z,9.15
2019-03-28T07:41:22.369Z,9.21
2019-03-28T07:42:17.343Z,9.24
2019-03-28T07:43:17.306Z,9.57
2019-03-28T07:44:17.303Z,9.79
2019-03-28T07:45:17.289Z,10.07
2019-03-28T07:46:17.285Z,10.71
2019-03-28T07:47:17.277Z,11.10
2019-03-28T07:48:17.256Z,11.80
2019-03-28T07:49:17.461Z,12.07
2019-03-28T07:50:17.299Z,12.21
2019-03-28T07:51:17.223Z,12.71
2019-03-28T07:52:22.238Z,13.25
2019-03-28T07:53:19.735Z,13.54
2019-03-28T07:54:17.193Z,13.95
2019-03-28T07:55:17.195Z,14.06
2019-03-28T07:56:17.170Z,14.20
2019-03-28T07:57:17.177Z,14.28
2019-03-28T07:58:17.152Z,14.54
2019-03-28T07:59:17.127Z,14.22
2019-03-28T08:00:17.115Z,13.97
2019-03-28T08:01:18.220Z,13.33
2019-03-28T08:02:17.108Z,12.50
2019-03-28T08:03:22.102Z,11.83
2019-03-28T08:04:17.074Z,11.83
2019-03-28T08:05:17.110Z,11.80
2019-03-28T08:06:17.047Z,11.98
2019-03-28T08:07:17.047Z,11.69
2019-03-28T08:08:17.028Z,11.28
2019-03-28T08:09:17.700Z,11.09
2019-03-28T08:10:17.108Z,10.88
2019-03-28T08:11:17.057Z,10.63
2019-03-28T08:12:23.063Z,10.23
2019-03-28T08:13:17.977Z,10.07
2019-03-28T08:14:21.984Z,9.86
2019-03-28T08:15:16.945Z,10.64
2019-03-28T08:16:16.960Z,11.36
2019-03-28T08:17:16.933Z,12.10
2019-03-28T08:18:16.948Z,12.62
2019-03-28T08:19:16.907Z,12.92
2019-03-28T08:20:16.889Z,13.07
2019-03-28T08:21:16.876Z,13.26
2019-03-28T08:22:16.878Z,13.22
2019-03-28T08:23:16.857Z,13.41
2019-03-28T08:24:16.859Z,13.46
2019-03-28T08:25:21.865Z,13.25
2019-03-28T08:26:16.820Z,13.17
2019-03-28T08:27:17.153Z,13.41
2019-03-28T08:28:16.823Z,13.49
2019-03-28T08:29:16.793Z,13.48
2019-03-28T08:30:19.268Z,13.46
2019-03-28T08:31:16.842Z,13.51
2019-03-28T08:32:16.783Z,13.39
2019-03-28T08:33:16.756Z,13.54
2019-03-28T08:34:16.731Z,13.84
2019-03-28T08:35:16.723Z,13.63
2019-03-28T08:36:21.736Z,13.52
2019-03-28T08:37:16.812Z,13.28
2019-03-28T08:38:16.687Z,13.23
2019-03-28T08:39:16.678Z,13.07
2019-03-28T08:40:16.665Z,13.11
2019-03-28T08:41:16.653Z,12.97
2019-03-28T08:42:16.664Z,12.95
2019-03-28T08:43:16.636Z,12.93
2019-03-28T08:44:16.620Z,13.17
2019-03-28T08:45:16.613Z,13.29
2019-03-28T08:46:16.597Z,13.41
2019-03-28T08:47:21.626Z,13.62
2019-03-28T08:48:16.577Z,13.32
2019-03-28T08:49:16.562Z,13.00
2019-03-28T08:50:16.562Z,12.68
2019-03-28T08:51:16.551Z,12.27
2019-03-28T08:52:16.552Z,12.24
2019-03-28T08:53:16.695Z,12.47
2019-03-28T08:54:16.513Z,12.79
2019-03-28T08:55:16.497Z,12.95
2019-03-28T08:56:16.485Z,13.07
2019-03-28T08:57:16.671Z,13.49
2019-03-28T08:58:21.495Z,13.69
2019-03-28T08:59:16.455Z,13.88
2019-03-28T09:00:17.088Z,14.15
2019-03-28T09:01:16.438Z,14.25
2019-03-28T09:02:16.509Z,14.57
2019-03-28T09:03:16.486Z,14.61
2019-03-28T09:04:16.392Z,14.88
2019-03-28T09:05:16.394Z,15.06
2019-03-28T09:06:17.187Z,15.23
2019-03-28T09:07:17.580Z,15.36
2019-03-28T09:08:16.368Z,15.27
2019-03-28T09:09:21.545Z,15.28
2019-03-28T09:10:16.341Z,15.17
2019-03-28T09:11:16.311Z,15.07
2019-03-28T09:12:16.300Z,15.02
2019-03-28T09:13:16.302Z,15.10
2019-03-28T09:14:16.282Z,15.03
2019-03-28T09:15:16.345Z,15.02
2019-03-28T09:16:16.274Z,15.09
2019-03-28T09:17:16.245Z,14.99
2019-03-28T09:18:16.245Z,15.10
2019-03-28T09:19:16.222Z,15.03
2019-03-28T09:20:21.244Z,14.95
2019-03-28T09:21:16.213Z,14.78
2019-03-28T09:22:16.187Z,14.80
2019-03-28T09:23:16.234Z,14.81
2019-03-28T09:24:16.170Z,14.83
2019-03-28T09:25:16.155Z,15.02
2019-03-28T09:26:16.164Z,14.96
2019-03-28T09:27:16.171Z,14.50
2019-03-28T09:28:16.153Z,14.43
2019-03-28T09:29:16.109Z,14.25
2019-03-28T09:30:16.097Z,14.18
2019-03-28T09:31:21.110Z,14.22
2019-03-28T09:32:16.074Z,14.27
2019-03-28T09:33:16.082Z,14.36
2019-03-28T09:34:16.053Z,14.50
2019-03-28T09:35:16.038Z,14.52
2019-03-28T09:36:16.034Z,14.70
2019-03-28T09:37:16.018Z,15.07
2019-03-28T09:38:16.022Z,15.25
2019-03-28T09:39:15.999Z,15.21
2019-03-28T09:40:16.008Z,15.32
2019-03-28T09:41:15.974Z,15.62
2019-03-28T09:42:20.981Z,16.00
2019-03-28T09:43:15.973Z,15.92
2019-03-28T09:44:15.938Z,16.04
2019-03-28T09:45:15.939Z,16.08
2019-03-28T09:46:15.915Z,16.00
2019-03-28T09:47:15.906Z,16.17
2019-03-28T09:48:15.907Z,16.23
2019-03-28T09:49:15.895Z,16.34
2019-03-28T09:50:15.870Z,16.33
2019-03-28T09:51:15.860Z,16.25
2019-03-28T09:52:15.853Z,16.31
2019-03-28T09:53:20.877Z,16.50
2019-03-28T09:54:15.826Z,16.52
2019-03-28T09:55:18.726Z,16.50
2019-03-28T09:56:15.803Z,16.57
2019-03-28T09:57:15.794Z,16.81
2019-03-28T09:58:15.806Z,16.86
2019-03-28T09:59:15.776Z,16.91
2019-03-28T10:00:15.761Z,16.82
2019-03-28T10:01:15.743Z,16.73
2019-03-28T10:02:15.779Z,16.98
2019-03-28T10:03:15.735Z,17.08
2019-03-28T10:04:20.736Z,17.08
2019-03-28T10:05:15.699Z,17.04
2019-03-28T10:06:15.688Z,17.21
2019-03-28T10:07:15.675Z,17.18
2019-03-28T10:08:15.678Z,17.08
2019-03-28T10:09:15.660Z,16.97
2019-03-28T10:10:15.657Z,17.01
2019-03-28T10:11:15.723Z,16.76
2019-03-28T10:12:15.625Z,16.61
2019-03-28T10:13:15.636Z,16.41
2019-03-28T10:14:15.599Z,16.49
2019-03-28T10:15:20.609Z,16.53
2019-03-28T10:16:15.581Z,16.78
2019-03-28T10:17:15.578Z,16.76
2019-03-28T10:18:15.595Z,16.81
2019-03-28T10:19:15.544Z,16.88
2019-03-28T10:20:15.529Z,17.08
2019-03-28T10:21:15.532Z,17.23
2019-03-28T10:22:15.522Z,17.08
2019-03-28T10:23:15.506Z,17.08
2019-03-28T10:24:15.486Z,17.18
2019-03-28T10:25:15.473Z,17.14
2019-03-28T10:26:20.489Z,16.91
2019-03-28T10:27:15.464Z,16.85
2019-03-28T10:28:15.597Z,16.96
2019-03-28T10:29:15.440Z,17.12
2019-03-28T10:30:15.417Z,17.30
2019-03-28T10:31:16.910Z,17.22
2019-03-28T10:32:15.393Z,17.36
2019-03-28T10:33:15.397Z,17.63
2019-03-28T10:34:15.373Z,17.74
2019-03-28T10:35:15.381Z,17.87
2019-03-28T10:36:15.350Z,17.99
2019-03-28T10:37:20.366Z,18.00
2019-03-28T10:38:15.339Z,17.96
2019-03-28T10:39:15.334Z,17.95
2019-03-28T10:40:15.302Z,17.74
2019-03-28T10:41:15.296Z,17.62
2019-03-28T10:42:15.281Z,17.48
2019-03-28T10:43:15.294Z,17.59
2019-03-28T10:44:15.261Z,17.93
2019-03-28T10:45:15.250Z,18.27
2019-03-28T10:46:15.246Z,18.48
2019-03-28T10:47:15.224Z,18.44
2019-03-28T10:48:23.383Z,18.47
2019-03-28T10:49:15.811Z,18.47
2019-03-28T10:50:15.199Z,18.39
2019-03-28T10:51:15.180Z,18.67
2019-03-28T10:52:15.175Z,18.72
2019-03-28T10:53:15.181Z,18.94
2019-03-28T10:54:20.488Z,19.13
2019-03-28T10:55:16.754Z,19.08
2019-03-28T10:56:22.044Z,18.72
2019-03-28T10:57:29.617Z,18.65
2019-03-28T10:58:19.166Z,18.75
2019-03-28T10:59:23.684Z,19.08
2019-03-28T11:00:23.934Z,19.25
2019-03-28T11:01:18.170Z,19.19
2019-03-28T11:02:16.056Z,19.46
2019-03-28T11:03:15.046Z,19.44
2019-03-28T11:04:15.047Z,19.48
2019-03-28T11:05:15.023Z,19.41
2019-03-28T11:06:15.013Z,19.50
2019-03-28T11:07:15.001Z,19.59
2019-03-28T11:08:15.034Z,19.59
2019-03-28T11:09:14.989Z,19.62
2019-03-28T11:10:19.994Z,19.58
2019-03-28T11:11:14.954Z,19.33
2019-03-28T11:12:14.950Z,19.19
2019-03-28T11:13:14.944Z,19.04
2019-03-28T11:14:14.935Z,19.16
2019-03-28T11:15:14.914Z,19.08
2019-03-28T11:16:15.345Z,19.04
2019-03-28T11:17:14.892Z,18.99
2019-03-28T11:18:14.891Z,19.21
2019-03-28T11:19:15.951Z,19.36
2019-03-28T11:20:14.857Z,19.25
2019-03-28T11:21:19.861Z,19.08
2019-03-28T11:22:14.832Z,19.25
2019-03-28T11:23:14.828Z,19.04
2019-03-28T11:24:14.816Z,18.94
2019-03-28T11:25:14.791Z,18.90
2019-03-28T11:26:14.784Z,18.94
2019-03-28T11:27:14.771Z,19.07
2019-03-28T11:28:15.759Z,18.90
2019-03-28T11:29:14.761Z,18.95
2019-03-28T11:30:18.190Z,18.69
2019-03-28T11:31:14.728Z,18.62
2019-03-28T11:32:19.742Z,18.42
2019-03-28T11:33:14.709Z,17.99
2019-03-28T11:34:14.933Z,17.48
2019-03-28T11:35:14.684Z,17.48
2019-03-28T11:36:14.671Z,17.56
2019-03-28T11:37:25.380Z,17.72
2019-03-28T11:38:15.653Z,17.86
2019-03-28T11:39:14.659Z,17.96
2019-03-28T11:40:14.629Z,18.00
2019-03-28T11:41:14.654Z,18.27
2019-03-28T11:42:14.608Z,18.41
2019-03-28T11:43:19.731Z,18.51
2019-03-28T11:44:14.604Z,18.78
2019-03-28T11:45:14.574Z,19.02
2019-03-28T11:46:14.564Z,19.18
2019-03-28T11:47:14.562Z,18.82
2019-03-28T11:48:14.536Z,18.99
2019-03-28T11:49:14.537Z,18.62
2019-03-28T11:50:17.086Z,18.15
2019-03-28T11:51:14.514Z,17.74
2019-03-28T11:52:14.492Z,17.59
2019-03-28T11:53:14.486Z,17.72
2019-03-28T11:54:19.519Z,17.71
2019-03-28T11:55:14.459Z,17.59
2019-03-28T11:56:14.448Z,17.72
2019-03-28T11:57:15.910Z,17.87
2019-03-28T11:58:14.443Z,17.99
2019-03-28T11:59:14.425Z,18.05
2019-03-28T12:00:14.411Z,18.11
2019-03-28T12:01:14.442Z,18.12
2019-03-28T12:02:20.129Z,18.26
2019-03-28T12:03:15.372Z,18.45
2019-03-28T12:04:14.370Z,18.44
2019-03-28T12:05:19.375Z,18.29
2019-03-28T12:06:14.337Z,18.30
2019-03-28T12:07:14.328Z,18.37
2019-03-28T12:08:14.320Z,18.57
2019-03-28T12:09:14.316Z,18.95
2019-03-28T12:10:14.290Z,19.50
2019-03-28T12:11:14.291Z,19.66
2019-03-28T12:12:14.270Z,19.59
2019-03-28T12:13:14.263Z,19.74
2019-03-28T12:14:14.264Z,19.88
2019-03-28T12:15:14.240Z,20.06
2019-03-28T12:16:19.246Z,20.03
2019-03-28T12:17:14.224Z,20.26
2019-03-28T12:18:14.201Z,20.10
2019-03-28T12:19:17.550Z,19.47
2019-03-28T12:20:14.177Z,18.92
2019-03-28T12:21:14.167Z,18.84
2019-03-28T12:22:14.155Z,18.82
2019-03-28T12:23:14.145Z,18.76
2019-03-28T12:24:14.150Z,19.54
2019-03-28T12:25:14.155Z,20.21
2019-03-28T12:26:14.115Z,20.70
2019-03-28T12:27:19.124Z,21.06
2019-03-28T12:28:14.093Z,20.97
2019-03-28T12:29:14.099Z,21.14
2019-03-28T12:30:15.960Z,21.35
2019-03-28T12:31:14.056Z,21.67
2019-03-28T12:32:14.668Z,22.03
2019-03-28T12:33:14.034Z,22.20
2019-03-28T12:34:14.038Z,21.98
2019-03-28T12:35:14.013Z,21.25
2019-03-28T12:36:14.003Z,20.64
2019-03-28T12:37:13.991Z,20.24
2019-03-28T12:38:19.003Z,19.96
2019-03-28T12:39:15.671Z,19.62
2019-03-28T12:40:13.964Z,19.29
2019-03-28T12:41:13.947Z,18.87
2019-03-28T12:42:13.932Z,18.60
2019-03-28T12:43:13.923Z,18.32
2019-03-28T12:44:13.927Z,18.23
2019-03-28T12:45:13.904Z,18.11
2019-03-28T12:46:13.898Z,18.08
2019-03-28T12:47:13.949Z,17.92
2019-03-28T12:48:13.864Z,17.84
2019-03-28T12:49:18.889Z,18.00
2019-03-28T12:50:13.843Z,18.08
2019-03-28T12:51:13.835Z,18.10
2019-03-28T12:52:13.823Z,17.81
2019-03-28T12:53:13.817Z,17.79
2019-03-28T12:54:13.811Z,17.86
2019-03-28T12:55:13.792Z,17.87
2019-03-28T12:56:13.776Z,17.71
2019-03-28T12:57:14.594Z,17.70
2019-03-28T12:58:13.779Z,17.63
2019-03-28T12:59:14.709Z,17.74
2019-03-28T13:00:18.752Z,17.68
2019-03-28T13:08:27.996Z,17.37
2019-03-28T13:09:36.058Z,17.44
2019-03-28T13:10:06.955Z,17.51
2019-03-28T13:11:06.946Z,17.40
2019-03-28T13:12:06.936Z,17.33
2019-03-28T13:15:49.879Z,17.26
2019-03-28T13:16:24.528Z,17.23